Main page
METAR-TAF:

METAR-TAF

Airports :

Šiauliai International Airport

Šiauliai, Lithuania

latitude: 55-53-38N, longitude: 023-23-42E, elevation: 135 m

Current weather observation

The report was made 34 minutes ago, at 04:20 UTC
Wind 8 kt from the Southeast
Temperature 10°C
Humidity 93%
Pressure 1007 hPa
Visibility 10 km or more
no clouds below 1500 m and no cumulonimbus

METAR: EYSA 240420Z 14008KT CAVOK 10/09 Q1007 BLU NOSIG

Time: 07:54 (04:54 UTC)

Forecast

The report was made 2 hours and 54 minutes ago, at 02:00 UTC
Forecast valid from 24 at 03 UTC to 24 at 12 UTC
Wind 8 kt from the South/Southeast
Visibility 10 km or more
no clouds below 1500 m and no cumulonimbus

TAF: EYSA 240200Z 2403/2412 15008KT CAVOK

Weather observations and forecasts of more than 4000 airports (METAR and TAF reports).

The available stations are represented by yellow and red dots on the map.

Hover mouse over dot to see the name of the station.

Then click to see weather observations and forecasts.

To change the map : click on the green buttons with a black cross to zoom in, on the green button with a dash to zoom out, or on the green arrows for adjacent maps.


METAR-TAF: